createdAt,value
2023-04-06T00:02:31.590Z,0.92
2023-04-06T00:05:48.260Z,0.98
2023-04-06T00:09:04.920Z,1.00
2023-04-06T00:12:21.290Z,0.99
2023-04-06T00:15:37.874Z,0.95
2023-04-06T00:18:54.222Z,0.96
2023-04-06T00:22:10.740Z,0.94
2023-04-06T00:25:27.557Z,0.93
2023-04-06T00:28:44.243Z,0.95
2023-04-06T00:32:00.829Z,0.90
2023-04-06T00:35:18.459Z,0.87
2023-04-06T00:38:34.803Z,0.85
2023-04-06T00:41:57.070Z,0.80
2023-04-06T00:45:15.676Z,0.79
2023-04-06T00:48:32.892Z,0.79
2023-04-06T00:51:49.401Z,0.79
2023-04-06T00:55:05.827Z,0.72
2023-04-06T00:58:23.322Z,0.38
2023-04-06T01:01:41.477Z,0.18
2023-04-06T01:05:00.547Z,-0.02
2023-04-06T01:08:19.173Z,-0.22
2023-04-06T01:11:36.274Z,-0.33
2023-04-06T01:14:53.767Z,-0.28
2023-04-06T01:24:18.724Z,-0.44
2023-04-06T01:27:43.116Z,-0.62
2023-04-06T01:30:59.973Z,-0.57
2023-04-06T01:34:18.552Z,-0.54
2023-04-06T01:37:37.058Z,-0.54
2023-04-06T01:40:54.105Z,-0.62
2023-04-06T01:44:12.960Z,-0.76
2023-04-06T01:47:30.269Z,-0.83
2023-04-06T01:50:47.307Z,-0.94
2023-04-06T01:54:05.465Z,-0.93
2023-04-06T01:57:39.958Z,-0.95
2023-04-06T02:00:58.108Z,-0.90
2023-04-06T02:04:16.094Z,-0.86
2023-04-06T02:07:33.118Z,-0.93
2023-04-06T02:10:50.155Z,-0.91
2023-04-06T02:14:08.338Z,-0.97
2023-04-06T02:17:26.621Z,-1.00
2023-04-06T02:20:43.188Z,-1.07
2023-04-06T02:23:59.863Z,-0.99
2023-04-06T02:27:16.138Z,-0.95
2023-04-06T02:30:34.605Z,-0.95
2023-04-06T02:33:51.184Z,-1.15
2023-04-06T02:37:08.369Z,-1.07
2023-04-06T02:40:26.473Z,-1.14
2023-04-06T02:43:43.877Z,-1.19
2023-04-06T02:47:04.810Z,-1.24
2023-04-06T02:50:22.247Z,-1.36
2023-04-06T02:53:43.096Z,-1.42
2023-04-06T02:57:01.111Z,-1.39
2023-04-06T03:00:22.747Z,-1.42
2023-04-06T03:06:42.299Z,-1.40
2023-04-06T03:10:00.493Z,-1.40
2023-04-06T03:13:18.784Z,-1.40
2023-04-06T03:16:42.677Z,-1.49
2023-04-06T03:23:04.015Z,-1.32
2023-04-06T03:26:22.276Z,-1.27
2023-04-06T03:29:40.420Z,-1.39
2023-04-06T03:32:58.905Z,-1.38
2023-04-06T03:36:17.661Z,-1.52
2023-04-06T03:39:33.981Z,-1.59
2023-04-06T03:42:51.206Z,-1.48
2023-04-06T03:46:07.961Z,-1.51
2023-04-06T03:49:24.506Z,-1.45
2023-04-06T03:52:41.622Z,-1.54
2023-04-06T03:55:57.953Z,-1.51
2023-04-06T03:59:14.313Z,-1.53
2023-04-06T04:02:31.035Z,-1.51
2023-04-06T04:05:47.849Z,-1.50
2023-04-06T04:09:04.305Z,-1.53
2023-04-06T04:12:21.271Z,-1.48
2023-04-06T04:15:37.735Z,-1.39
2023-04-06T04:18:54.052Z,-1.41
2023-04-06T04:22:12.077Z,-1.39
2023-04-06T04:25:29.602Z,-1.33
2023-04-06T04:28:46.363Z,-1.35
2023-04-06T04:32:05.398Z,-1.32
2023-04-06T04:35:23.506Z,-1.39
2023-04-06T04:38:39.594Z,-1.34
2023-04-06T04:41:56.118Z,-1.30
2023-04-06T04:45:14.368Z,-1.25
2023-04-06T04:51:35.804Z,-1.08
2023-04-06T04:54:56.933Z,-1.00
2023-04-06T04:58:17.312Z,-0.86
2023-04-06T05:01:47.362Z,-0.88
2023-04-06T05:04:54.654Z,-0.86
2023-04-06T05:08:14.234Z,-0.86
2023-04-06T05:11:35.449Z,-0.85
2023-04-06T05:14:52.726Z,-0.80
2023-04-06T05:18:10.729Z,-0.71
2023-04-06T05:21:28.607Z,-0.69
2023-04-06T05:24:44.443Z,-0.51
2023-04-06T05:28:00.958Z,-0.50
2023-04-06T05:31:22.590Z,-0.43
2023-04-06T05:34:42.180Z,-0.49
2023-04-06T05:37:58.481Z,-0.32
2023-04-06T05:41:15.158Z,-0.25
2023-04-06T05:44:31.942Z,-0.22
2023-04-06T05:47:53.462Z,-0.24
2023-04-06T05:51:14.975Z,-0.08
2023-04-06T05:54:37.958Z,0.01
2023-04-06T05:57:54.443Z,0.04
2023-04-06T06:01:11.954Z,0.09
2023-04-06T06:04:30.182Z,0.12
2023-04-06T06:07:47.312Z,0.16
2023-04-06T06:11:04.144Z,0.24
2023-04-06T06:14:20.659Z,0.33
2023-04-06T06:17:39.016Z,0.40
2023-04-06T06:20:57.480Z,0.43
2023-04-06T06:24:16.012Z,0.44
2023-04-06T06:27:32.592Z,0.65
2023-04-06T06:30:49.157Z,0.61
2023-04-06T06:34:07.456Z,0.67
2023-04-06T06:37:25.385Z,0.72
2023-04-06T06:40:42.896Z,0.75
2023-04-06T06:43:59.734Z,0.76
2023-04-06T06:47:17.359Z,0.81
2023-04-06T06:50:33.984Z,0.84
2023-04-06T06:53:50.730Z,0.85
2023-04-06T06:57:07.781Z,0.91
2023-04-06T07:00:26.816Z,0.93
2023-04-06T07:03:44.279Z,1.02
2023-04-06T07:07:00.689Z,1.08
2023-04-06T07:10:20.006Z,1.14
2023-04-06T07:13:36.702Z,1.23
2023-04-06T07:16:53.449Z,1.22
2023-04-06T07:20:11.168Z,1.33
2023-04-06T07:23:28.186Z,1.36
2023-04-06T07:26:44.614Z,1.42
2023-04-06T07:30:01.030Z,1.41
2023-04-06T07:33:17.883Z,1.40
2023-04-06T07:36:35.144Z,1.51
2023-04-06T07:39:51.850Z,1.57
2023-04-06T07:43:08.720Z,1.65
2023-04-06T07:46:28.265Z,1.71
2023-04-06T07:49:45.234Z,1.68
2023-04-06T07:53:02.506Z,1.72
2023-04-06T07:56:19.832Z,1.64
2023-04-06T07:59:48.101Z,1.81
2023-04-06T08:03:04.836Z,1.87
2023-04-06T08:06:21.846Z,2.00
2023-04-06T08:09:38.682Z,2.15
2023-04-06T08:12:55.328Z,2.14
2023-04-06T08:16:12.990Z,2.45
2023-04-06T08:19:29.619Z,2.54
2023-04-06T08:22:47.624Z,2.59
2023-04-06T08:26:04.313Z,2.45
2023-04-06T08:29:21.261Z,2.52
2023-04-06T08:32:37.738Z,2.64
2023-04-06T08:35:54.561Z,2.86
2023-04-06T08:39:11.654Z,3.23
2023-04-06T08:42:32.240Z,3.33
2023-04-06T08:45:50.377Z,3.52
2023-04-06T08:49:08.781Z,3.42
2023-04-06T08:52:24.848Z,3.58
2023-04-06T08:55:41.882Z,3.54
2023-04-06T08:58:58.775Z,3.38
2023-04-06T09:02:19.053Z,3.28
2023-04-06T09:05:36.455Z,3.06
2023-04-06T09:08:53.004Z,3.03
2023-04-06T09:12:11.785Z,2.95
2023-04-06T09:15:32.946Z,2.89
2023-04-06T09:21:53.144Z,2.84
2023-04-06T09:25:09.892Z,2.85
2023-04-06T09:28:27.388Z,2.92
2023-04-06T09:31:44.117Z,2.80
2023-04-06T09:35:00.595Z,2.89
2023-04-06T09:38:22.742Z,2.67
2023-04-06T09:41:41.604Z,2.53
2023-04-06T09:44:58.134Z,2.63
2023-04-06T09:48:15.763Z,2.69
2023-04-06T09:51:35.612Z,2.72
2023-04-06T09:54:56.533Z,2.72
2023-04-06T09:58:21.110Z,2.73
2023-04-06T10:01:41.771Z,2.74
2023-04-06T10:05:06.059Z,2.84
2023-04-06T10:08:24.301Z,2.86
2023-04-06T10:11:42.462Z,2.76
2023-04-06T10:14:59.857Z,2.82
2023-04-06T10:18:17.102Z,2.83
2023-04-06T10:24:49.976Z,2.66
2023-04-06T10:28:14.159Z,2.71
2023-04-06T10:31:37.592Z,2.66
2023-04-06T10:34:54.116Z,2.50
2023-04-06T10:38:16.099Z,2.29
2023-04-06T10:41:32.606Z,2.25
2023-04-06T10:44:52.987Z,2.27
2023-04-06T10:48:11.189Z,2.28
2023-04-06T10:51:34.959Z,2.21
2023-04-06T10:54:53.541Z,2.25
2023-04-06T10:58:11.850Z,2.29
2023-04-06T11:01:30.896Z,2.41
2023-04-06T11:04:47.969Z,2.35
2023-04-06T11:08:04.776Z,2.25
2023-04-06T11:11:24.695Z,2.15
2023-04-06T11:14:41.253Z,2.15
2023-04-06T11:17:58.187Z,2.15
2023-04-06T11:21:16.366Z,2.01
2023-04-06T11:24:33.844Z,2.06
2023-04-06T11:27:51.680Z,1.95
2023-04-06T11:31:08.439Z,1.96
2023-04-06T11:34:28.819Z,1.99
2023-04-06T11:37:45.630Z,1.92
2023-04-06T11:41:05.618Z,2.00
2023-04-06T11:44:22.606Z,1.83
2023-04-06T11:47:45.482Z,1.81
2023-04-06T11:51:08.783Z,1.87
2023-04-06T11:54:25.268Z,1.91
2023-04-06T11:57:43.369Z,2.01
2023-04-06T12:00:59.922Z,2.06
2023-04-06T12:04:16.713Z,2.12
2023-04-06T12:07:33.346Z,2.03
2023-04-06T12:10:50.051Z,1.80
2023-04-06T12:14:07.199Z,1.70
2023-04-06T12:17:23.820Z,1.78
2023-04-06T12:20:40.717Z,1.78
2023-04-06T12:23:57.986Z,1.81
2023-04-06T12:27:15.732Z,1.85
2023-04-06T12:30:34.185Z,1.93
2023-04-06T12:33:52.878Z,1.58
2023-04-06T12:37:09.572Z,1.68
2023-04-06T12:40:26.960Z,1.74
2023-04-06T12:43:46.226Z,1.73
2023-04-06T12:47:03.215Z,1.77
2023-04-06T12:50:22.749Z,1.68
2023-04-06T12:53:37.632Z,1.66
2023-04-06T12:56:54.053Z,1.61
2023-04-06T13:00:11.778Z,1.58
2023-04-06T13:03:29.263Z,1.54
2023-04-06T13:06:45.765Z,1.51
2023-04-06T13:10:02.728Z,1.46
2023-04-06T13:13:19.256Z,1.52
2023-04-06T13:16:37.068Z,1.54
2023-04-06T13:19:53.628Z,1.43
2023-04-06T13:23:10.431Z,1.54
2023-04-06T13:26:27.288Z,1.38
2023-04-06T13:29:44.338Z,1.40
2023-04-06T13:33:00.864Z,1.35
2023-04-06T13:36:18.692Z,1.44
2023-04-06T13:39:35.365Z,1.47
2023-04-06T13:42:52.532Z,1.57
2023-04-06T13:46:09.146Z,1.56
2023-04-06T13:49:25.938Z,1.52
2023-04-06T13:52:43.930Z,1.47
2023-04-06T13:56:07.023Z,1.53
2023-04-06T13:59:23.472Z,1.68
2023-04-06T14:02:40.115Z,1.66
2023-04-06T14:06:01.392Z,1.68
2023-04-06T14:09:16.396Z,1.71
2023-04-06T14:12:33.590Z,1.60
2023-04-06T14:15:52.837Z,1.40
2023-04-06T14:19:09.392Z,1.40
2023-04-06T14:22:26.385Z,1.44
2023-04-06T14:25:42.978Z,1.49
2023-04-06T14:28:59.641Z,1.46
2023-04-06T14:32:16.326Z,1.57
2023-04-06T14:35:34.376Z,1.58
2023-04-06T14:38:50.641Z,1.59
2023-04-06T14:42:07.367Z,1.63
2023-04-06T14:45:24.557Z,1.72
2023-04-06T14:48:41.536Z,1.61
2023-04-06T14:51:57.943Z,1.70
2023-04-06T14:55:16.059Z,1.57
2023-04-06T14:58:34.206Z,1.57
2023-04-06T15:01:53.931Z,1.61
2023-04-06T15:05:14.110Z,1.73
2023-04-06T15:08:30.923Z,1.77
2023-04-06T15:11:47.335Z,1.76
2023-04-06T15:15:03.773Z,1.85
2023-04-06T15:18:20.830Z,1.85
2023-04-06T15:21:37.694Z,1.85
2023-04-06T15:24:54.089Z,1.90
2023-04-06T15:28:12.737Z,1.83
2023-04-06T15:31:37.542Z,1.87
2023-04-06T15:34:48.758Z,1.86
2023-04-06T15:38:05.224Z,1.85
2023-04-06T15:41:22.045Z,1.81
2023-04-06T15:44:38.689Z,1.85
2023-04-06T15:47:56.052Z,1.82
2023-04-06T15:51:12.374Z,1.81
2023-04-06T15:54:29.085Z,1.78
2023-04-06T15:57:46.037Z,1.75
2023-04-06T16:01:03.378Z,1.63
2023-04-06T16:04:19.851Z,1.60
2023-04-06T16:07:36.479Z,1.63
2023-04-06T16:10:53.327Z,1.67
2023-04-06T16:14:10.318Z,1.60
2023-04-06T16:17:26.827Z,1.57
2023-04-06T16:20:45.819Z,1.59
2023-04-06T16:24:02.445Z,1.42
2023-04-06T16:27:18.849Z,1.40
2023-04-06T16:30:35.292Z,1.34
2023-04-06T16:33:51.686Z,1.33
2023-04-06T16:37:08.061Z,1.26
2023-04-06T16:40:24.779Z,1.22
2023-04-06T16:43:41.429Z,1.11
2023-04-06T16:46:57.782Z,1.11
2023-04-06T16:50:16.226Z,1.04
2023-04-06T16:53:33.013Z,1.00
2023-04-06T16:56:49.458Z,0.98
2023-04-06T17:00:06.534Z,1.05
2023-04-06T17:03:23.031Z,1.02
2023-04-06T17:09:55.244Z,1.07
2023-04-06T17:13:11.584Z,1.10
2023-04-06T17:16:29.152Z,1.13
2023-04-06T17:19:46.370Z,1.15
2023-04-06T17:23:03.243Z,1.01
2023-04-06T17:26:19.913Z,1.05
2023-04-06T17:29:36.385Z,1.04
2023-04-06T17:32:53.293Z,0.98
2023-04-06T17:36:13.122Z,1.01
2023-04-06T17:39:29.957Z,1.08
2023-04-06T17:42:46.498Z,1.02
2023-04-06T17:46:03.305Z,1.03
2023-04-06T17:49:19.755Z,1.08
2023-04-06T17:52:37.598Z,1.10
2023-04-06T17:55:53.890Z,1.10
2023-04-06T17:59:12.461Z,1.12
2023-04-06T18:02:32.057Z,1.15
2023-04-06T18:05:49.246Z,1.09
2023-04-06T18:09:06.543Z,1.10
2023-04-06T18:12:23.404Z,1.08
2023-04-06T18:15:42.316Z,1.13
2023-04-06T18:18:58.929Z,1.10
2023-04-06T18:22:17.226Z,1.11
2023-04-06T18:25:34.039Z,1.05
2023-04-06T18:28:54.849Z,1.08
2023-04-06T18:32:12.351Z,1.09
2023-04-06T18:35:28.662Z,1.13
2023-04-06T18:38:46.995Z,1.08
2023-04-06T18:42:04.164Z,1.09
2023-04-06T18:45:23.231Z,0.99
2023-04-06T18:48:43.106Z,1.02
2023-04-06T18:52:00.346Z,1.05
2023-04-06T18:55:20.177Z,1.03
2023-04-06T18:58:37.576Z,1.09
2023-04-06T19:01:54.954Z,1.05
2023-04-06T19:08:27.375Z,1.01
2023-04-06T19:11:44.503Z,0.98
2023-04-06T19:15:01.589Z,0.98
2023-04-06T19:18:18.431Z,0.99
2023-04-06T19:21:35.648Z,0.98
2023-04-06T19:24:53.937Z,0.92
2023-04-06T19:28:26.675Z,0.90
2023-04-06T19:31:45.048Z,0.90
2023-04-06T19:35:03.782Z,0.85
2023-04-06T19:38:21.982Z,0.86
2023-04-06T19:41:39.286Z,0.91
2023-04-06T19:44:57.951Z,0.91
2023-04-06T19:48:15.179Z,0.78
2023-04-06T19:51:33.402Z,0.80
2023-04-06T19:54:49.922Z,0.88
2023-04-06T19:58:06.381Z,0.84
2023-04-06T20:01:23.278Z,0.80
2023-04-06T20:09:35.826Z,0.87
2023-04-06T20:12:53.153Z,0.89
2023-04-06T20:16:10.188Z,0.85
2023-04-06T20:19:26.878Z,0.85
2023-04-06T20:25:58.537Z,0.90
2023-04-06T20:29:15.084Z,0.83
2023-04-06T20:32:31.529Z,0.92
2023-04-06T20:35:47.960Z,0.85
2023-04-06T20:39:04.454Z,0.84
2023-04-06T20:42:22.466Z,0.88
2023-04-06T20:45:39.250Z,0.84
2023-04-06T20:48:55.540Z,0.79
2023-04-06T20:52:12.110Z,0.78
2023-04-06T20:55:28.807Z,0.80
2023-04-06T20:58:45.087Z,0.75
2023-04-06T21:02:01.723Z,0.78
2023-04-06T21:08:41.681Z,0.82
2023-04-06T21:11:58.170Z,0.82
2023-04-06T21:15:16.773Z,0.90
2023-04-06T21:18:35.154Z,0.88
2023-04-06T21:21:51.526Z,0.91
2023-04-06T21:25:07.864Z,0.92
2023-04-06T21:28:24.764Z,0.91
2023-04-06T21:31:43.000Z,0.87
2023-04-06T21:34:59.389Z,0.85
2023-04-06T21:38:15.998Z,0.86
2023-04-06T21:41:32.583Z,0.88
2023-04-06T21:44:48.955Z,0.93
2023-04-06T21:48:05.452Z,0.89
2023-04-06T21:51:28.810Z,0.92
2023-04-06T21:54:45.090Z,0.90
2023-04-06T21:58:01.542Z,0.92
2023-04-06T22:01:20.859Z,0.92
2023-04-06T22:04:38.543Z,0.88
2023-04-06T22:07:58.097Z,0.95
2023-04-06T22:11:18.677Z,0.95
2023-04-06T22:14:35.489Z,0.99
2023-04-06T22:17:52.027Z,0.95
2023-04-06T22:21:09.013Z,0.93
2023-04-06T22:24:25.420Z,0.93
2023-04-06T22:27:41.638Z,1.00
2023-04-06T22:30:57.897Z,0.96
2023-04-06T22:34:14.343Z,0.95
2023-04-06T22:37:30.598Z,0.91
2023-04-06T22:40:46.934Z,0.84
2023-04-06T22:44:03.627Z,0.86
2023-04-06T22:47:20.022Z,0.91
2023-04-06T22:50:36.791Z,0.91
2023-04-06T22:53:53.420Z,0.86
2023-04-06T22:57:09.883Z,0.83
2023-04-06T23:00:27.339Z,0.80
2023-04-06T23:03:43.761Z,0.81
2023-04-06T23:07:00.236Z,0.83
2023-04-06T23:10:18.082Z,0.86
2023-04-06T23:13:34.404Z,0.90
2023-04-06T23:16:50.789Z,0.94
2023-04-06T23:20:07.194Z,0.94
2023-04-06T23:23:23.597Z,0.91
2023-04-06T23:26:39.946Z,0.96
2023-04-06T23:29:56.556Z,0.98
2023-04-06T23:33:13.096Z,0.99
2023-04-06T23:36:29.452Z,0.98
2023-04-06T23:39:45.984Z,0.99
2023-04-06T23:43:02.332Z,0.95
2023-04-06T23:46:23.064Z,0.98
2023-04-06T23:49:41.377Z,1.01
2023-04-06T23:52:57.977Z,1.02
2023-04-06T23:56:15.000Z,1.02
2023-04-06T23:59:31.874Z,1.01
